Germanville, Iowa
Current Conditions -  °F | °C
As of 7:55 PM on Friday 19 Dec 2014 (Local Time) from KFFL Reporting Station
Overcast Overcast  
Wind Chill: 23°   Ceiling: 2500
Heat Index: 30°   Visibility: 8mi
Dew Point: 25°   Wind: 7mph
Humidity: 80%   Direction: 130°SE
Pressure: 30.24"   Gusts: NA
Location:  41.1253°N, 91.8296°W
Report Text: KFFL 200155Z AUTO 13006KT 8SM OVC025 M01/M04 A3024 RMK AO2
Loading
Personal Weather Stations






























Interactive Weather Map New forecast layout! Learn more

10-Day Weather Forecast

Advertisements
Track Severe Weather on mobile